• Join FlightAware (Why Join?)
  • Login
  • US Flag 
07:12AM EST


 

Airport Tracker/Info


-or-


 

Live Flight TrackerFlight Track Log ✈ EJA922 ✈ 07-Jul-2013 ✈ KCMH - TIST / STT

Flight Track Log - Related Links

Times and Time Zones

All times are in EDT time to prevent confusion due to time zone crossing. See the EJA922 flight status page for this flight to view local times or setup timezone preferences in your user account.

Time Position Orientation Groundspeed Altitude Reporting Facility
EDT Latitude Longitude Course Direction KTS MPH feet Rate Location/Type
02:25PM 40.0042 -82.9322 255° West 193 222 2,000  Level Indianapolis Center
02:26PM 39.9839 -83.0331 255° West 237 273 6,800 3,480 Climbing Indianapolis Center
02:27PM 39.9100 -83.0047 164° South 272 313 11,000 3,240 Climbing Indianapolis Center
02:28PM 39.8442 -82.9317 140° Southeast 309 356 13,600 2,220 Climbing Indianapolis Center
02:29PM 39.7533 -82.8297 139° Southeast 364 419 15,700 1,800 Climbing Indianapolis Center
02:30PM 39.6719 -82.7394 139° Southeast 378 435 17,400 1,500 Climbing Indianapolis Center
02:31PM 39.5894 -82.6472 139° Southeast 386 444 18,800 1,320 Climbing Indianapolis Center
02:32PM 39.5042 -82.5522 139° Southeast 397 457 20,200 1,380 Climbing Indianapolis Center
02:33PM 39.4178 -82.4558 139° Southeast 399 459 21,700 1,260 Climbing Indianapolis Center
02:34PM 39.3314 -82.3617 140° Southeast 405 466 22,900 1,140 Climbing Indianapolis Center
02:35PM 39.2453 -82.2661 139° Southeast 408 470 24,100 1,020 Climbing Indianapolis Center
02:36PM 39.1575 -82.1681 139° Southeast 414 476 25,100 960 Climbing Indianapolis Center
02:37PM 39.0714 -82.0753 140° Southeast 406 467 26,100 960 Climbing Indianapolis Center
02:38PM 38.9689 -81.9639 140° Southeast 403 464 27,200 960 Climbing Indianapolis Center
02:39PM 38.8853 -81.8731 140° Southeast 397 457 28,200 960 Climbing Indianapolis Center
02:41PM 38.8031 -81.7847 140° Southeast 387 445 29,300 900 Climbing Indianapolis Center
02:42PM 38.7206 -81.6969 140° Southeast 389 448 30,100 660 Climbing Indianapolis Center
02:43PM 38.6275 -81.5950 139° Southeast 408 470 30,700 540 Climbing Indianapolis Center
02:44PM 38.5286 -81.4906 140° Southeast 423 487 31,300 480 Climbing Indianapolis Center
02:45PM 38.4372 -81.3922 140° Southeast 430 495 31,800 660 Climbing Indianapolis Center
02:46PM 38.3414 -81.2917 141° Southeast 443 510 32,700 1,020 Climbing Indianapolis Center
02:47PM 38.2475 -81.1914 140° Southeast 441 507 34,000 1,080 Climbing Indianapolis Center
02:48PM 38.1528 -81.0925 141° Southeast 440 506 35,000 1,380 Climbing Indianapolis Center
02:49PM 38.0394 -80.9736 140° Southeast 439 505 36,900 1,860 Climbing Indianapolis Center
02:50PM 37.9472 -80.8764 140° Southeast 433 498 38,900 1,500 Climbing Indianapolis Center
02:51PM 37.8581 -80.7833 141° Southeast 420 483 40,100 960 Climbing Indianapolis Center
02:52PM 37.7733 -80.6944 140° Southeast 413 475 41,000 420 Climbing Indianapolis Center
02:53PM 37.6847 -80.6067 142° Southeast 426 490 41,000  Level Washington Center
02:54PM 37.5886 -80.5086 141° Southeast 435 501 41,000  Level Washington Center
02:55PM 37.4903 -80.4081 141° Southeast 445 512 41,000  Level Washington Center
02:56PM 37.4042 -80.3214 141° Southeast 445 512 41,000  Level Washington Center
02:57PM 37.3100 -80.2242 141° Southeast 445 512 41,000  Level Washington Center
02:58PM 37.2114 -80.1244 141° Southeast 451 519 41,000  Level Washington Center
02:59PM 37.1011 -80.0086 140° Southeast 458 527 41,000  Level Washington Center
03:00PM 37.0003 -79.9092 142° Southeast 458 527 41,000  Level Washington Center
03:01PM 36.8978 -79.8047 141° Southeast 463 533 41,000  Level Washington Center
03:02PM 36.8072 -79.7114 140° Southeast 468 539 41,000  Level Washington Center
03:03PM 36.7061 -79.6103 141° Southeast 468 539 41,000 60 Level Washington Center
03:04PM 36.6053 -79.5067 140° Southeast 473 544 41,200 360 Climbing Washington Center
03:05PM 36.4900 -79.3925 141° Southeast 473 544 41,800 540 Climbing Washington Center
03:06PM 36.3869 -79.2894 141° Southeast 473 544 42,400 600 Climbing Washington Center
03:07PM 36.2897 -79.1944 142° Southeast 468 539 43,000 300 Climbing Washington Center
03:08PM 36.1883 -79.0947 142° Southeast 463 533 43,000  Level Washington Center
03:09PM 36.0869 -78.9950 142° Southeast 463 533 43,000  Level Washington Center
03:10PM 35.9833 -78.8906 141° Southeast 469 540 43,000  Level Washington Center
03:11PM 35.8775 -78.7964 144° Southeast 475 547 43,000  Level Washington Center
03:12PM 35.7581 -78.7325 157° South 470 541 43,000  Level Washington Center
03:13PM 35.6117 -78.6656 160° South 464 534 43,000  Level Washington Center
03:14PM 35.4903 -78.5997 156° South 481 554 43,000  Level Washington Center
03:15PM 35.3644 -78.5414 159° South 481 554 43,000  Level Washington Center
03:16PM 35.2344 -78.4858 161° South 494 568 43,000  Level Washington Center
03:17PM 35.1106 -78.4281 159° South 489 563 43,000  Level Washington Center
03:18PM 34.9889 -78.3706 159° South 479 551 43,000  Level Washington Center
03:19PM 34.8628 -78.3106 159° South 479 551 43,000  Level Washington Center
03:20PM 34.7553 -78.2639 160° South 473 544 43,000  Level Washington Center
03:21PM 34.6314 -78.2069 159° South 473 544 43,000  Level Washington Center
03:22PM 34.5075 -78.1500 159° South 473 544 43,000  Level Washington Center
03:23PM 34.3814 -78.0908 159° South 479 551 43,000  Level Washington Center
03:25PM 34.1711 -77.9936 159° South 477 549 43,000  Level Jacksonville Center
03:26PM 34.0422 -77.9556 166° South 484 557 43,000  Level Jacksonville Center
03:27PM 33.9147 -77.9478 177° South 475 547 43,000  Level Jacksonville Center
03:28PM 33.7831 -77.9403 177° South 475 547 43,000 -60 Level Jacksonville Center
03:29PM 33.6339 -77.9161 172° South 488 562 42,900  Descending Jacksonville Center
03:30PM 33.5086 -77.8636 161° South 478 550 43,000 180 Climbing Jacksonville Center
03:31PM 33.3814 -77.8086 160° South 484 557 43,300 420 Climbing Jacksonville Center
03:32PM 33.2542 -77.7561 161° South 491 565 43,900 600 Climbing Jacksonville Center
03:33PM 33.1289 -77.7039 161° South 491 565 44,500 540 Climbing Jacksonville Center
03:34PM 33.0056 -77.6542 161° South 486 559 45,000 240 Climbing Jacksonville Center
03:35PM 32.8825 -77.6044 161° South 480 552 45,000  Level Jacksonville Center
03:36PM 32.7575 -77.5550 162° South 474 545 45,000  Level Jacksonville Center
03:37PM 32.6342 -77.5056 161° South 474 545 45,000  Level Jacksonville Center
03:38PM 32.5111 -77.4561 161° South 474 545 45,000 -60 Level Jacksonville Center
03:39PM 32.3900 -77.4092 162° South 474 545 44,900  Descending Jacksonville Center
03:40PM 32.2667 -77.3578 161° South 474 545 45,000  Climbing Jacksonville Center
03:41PM 32.1436 -77.3089 161° South 474 545 45,000  Level Jacksonville Center
03:42PM 32.0203 -77.2575 161° South 474 545 45,000  Level Jacksonville Center
03:43PM 31.8969 -77.2086 161° South 474 545 45,000  Level Jacksonville Center
03:44PM 31.7697 -77.1628 163° South 474 545 45,000  Level Jacksonville Center
03:45PM 31.6486 -77.1117 160° South 474 545 45,000  Level Jacksonville Center
03:46PM 31.5250 -77.0611 161° South 474 545 45,000  Level Jacksonville Center
03:47PM 31.3997 -77.0153 163° South 474 545 45,000  Level Jacksonville Center
03:48PM 31.3500 -77.0000 140° Southeast 448 516 45,000  Level New York Oceanic (ODAPS)
03:54PM 30.6773 -76.3538 141° Southeast 448 516 45,000  Level FlightAware Transoceanic
03:55PM 30.5810 -76.2622 141° Southeast 448 516 45,000  Level FlightAware Transoceanic
03:56PM 30.4845 -76.1708 141° Southeast 448 516 45,000  Level FlightAware Transoceanic
03:57PM 30.3881 -76.0796 141° Southeast 448 516 45,000  Level FlightAware Transoceanic
03:58PM 30.2915 -75.9885 141° Southeast 448 516 45,000  Level FlightAware Transoceanic
03:59PM 30.1949 -75.8977 141° Southeast 448 516 45,000  Level FlightAware Transoceanic
04:00PM 30.0982 -75.8070 141° Southeast 448 516 45,000  Level FlightAware Transoceanic
04:01PM 30.0015 -75.7165 141° Southeast 448 516 45,000  Level FlightAware Transoceanic
04:02PM 29.9047 -75.6261 141° Southeast 448 516 45,000  Level FlightAware Transoceanic
04:03PM 29.8078 -75.5360 141° Southeast 448 516 45,000  Level FlightAware Transoceanic
04:04PM 29.7109 -75.4460 141° Southeast 448 516 45,000  Level FlightAware Transoceanic
04:05PM 29.6139 -75.3562 141° Southeast 448 516 45,000  Level FlightAware Transoceanic
04:06PM 29.5169 -75.2666 141° Southeast 448 516 45,000  Level FlightAware Transoceanic
04:07PM 29.4198 -75.1771 141° Southeast 448 516 45,000  Level FlightAware Transoceanic
04:08PM 29.3226 -75.0878 141° Southeast 448 516 45,000  Level FlightAware Transoceanic
04:09PM 29.2254 -74.9987 141° Southeast 448 516 45,000  Level FlightAware Transoceanic
04:10PM 29.1281 -74.9098 141° Southeast 448 516 45,000  Level FlightAware Transoceanic
04:11PM 29.0308 -74.8210 141° Southeast 448 516 45,000  Level FlightAware Transoceanic
04:12PM 28.9334 -74.7324 142° Southeast 448 516 45,000  Level FlightAware Transoceanic
04:13PM 28.8359 -74.6439 142° Southeast 448 516 45,000  Level FlightAware Transoceanic
04:14PM 28.7384 -74.5556 142° Southeast 448 516 45,000  Level FlightAware Transoceanic
04:15PM 28.6408 -74.4675 142° Southeast 448 516 45,000  Level FlightAware Transoceanic
04:16PM 28.5432 -74.3795 142° Southeast 448 516 45,000  Level FlightAware Transoceanic
04:17PM 28.4455 -74.2918 142° Southeast 448 516 45,000  Level FlightAware Transoceanic
04:18PM 28.3478 -74.2041 142° Southeast 448 516 45,000  Level FlightAware Transoceanic
04:19PM 28.2500 -74.1167 149° Southeast 448 516 45,000  Level FlightAware Transoceanic
04:20PM 28.1345 -74.0389 149° Southeast 448 516 45,000  Level FlightAware Transoceanic
04:21PM 28.0189 -73.9614 149° Southeast 448 516 45,000  Level FlightAware Transoceanic
04:21PM 28.2500 -74.1167 149° Southeast 450 518 45,000  Level New York Oceanic (ODAPS)
04:22PM 27.9033 -73.8840 149° Southeast 448 516 45,000  Level FlightAware Transoceanic
04:23PM 27.7877 -73.8067 149° Southeast 448 516 45,000  Level FlightAware Transoceanic
04:24PM 27.6720 -73.7297 149° Southeast 448 516 45,000  Level FlightAware Transoceanic
04:25PM 27.5563 -73.6528 150° Southeast 448 516 45,000  Level FlightAware Transoceanic
04:26PM 27.4405 -73.5760 150° Southeast 448 516 45,000  Level FlightAware Transoceanic
04:27PM 27.2783 -73.4689 150° Southeast 450 518 45,000  Level FlightAware Transoceanic
04:28PM 27.1702 -73.3976 150° Southeast 450 518 45,000  Level FlightAware Transoceanic
04:29PM 27.0620 -73.3265 150° Southeast 450 518 45,000  Level FlightAware Transoceanic
04:30PM 26.9538 -73.2555 150° Southeast 450 518 45,000  Level FlightAware Transoceanic
04:31PM 26.8455 -73.1846 150° Southeast 450 518 45,000  Level FlightAware Transoceanic
04:32PM 26.7372 -73.1139 150° Southeast 450 518 45,000  Level FlightAware Transoceanic
04:33PM 26.6289 -73.0433 150° Southeast 450 518 45,000  Level FlightAware Transoceanic
04:34PM 26.5206 -72.9728 150° Southeast 450 518 45,000  Level FlightAware Transoceanic
04:35PM 26.4122 -72.9025 150° Southeast 450 518 45,000  Level FlightAware Transoceanic
04:36PM 26.3037 -72.8323 150° Southeast 450 518 45,000  Level FlightAware Transoceanic
04:37PM 26.1953 -72.7623 150° Southeast 450 518 45,000  Level FlightAware Transoceanic
04:38PM 26.0868 -72.6923 150° Southeast 450 518 45,000  Level FlightAware Transoceanic
04:39PM 25.9783 -72.6225 150° Southeast 450 518 45,000  Level FlightAware Transoceanic
04:40PM 25.8697 -72.5528 150° Southeast 450 518 45,000  Level FlightAware Transoceanic
04:40PM 25.8022 -72.5131 150° Southeast 487 560 45,000  Level Miami Center
04:41PM 25.7611 -72.4833 150° Southeast 450 518 45,000  Level FlightAware Transoceanic
04:41PM 25.6914 -72.4411 150° Southeast 481 554 45,000  Level Miami Center
04:42PM 25.6525 -72.4139 150° Southeast 450 518 45,000  Level FlightAware Transoceanic
04:42PM 25.5744 -72.3669 150° Southeast 473 544 45,000  Level Miami Center
04:43PM 25.5438 -72.3446 150° Southeast 450 518 45,000  Level FlightAware Transoceanic
04:43PM 25.4614 -72.2931 149° Southeast 478 550 45,000  Level Miami Center
04:44PM 25.4351 -72.2754 150° Southeast 450 518 45,000  Level FlightAware Transoceanic
04:44PM 25.3656 -72.2325 150° Southeast 478 550 45,000  Level Miami Center
04:45PM 25.3264 -72.2064 150° Southeast 450 518 45,000  Level FlightAware Transoceanic
04:45PM 25.2419 -72.1522 150° Southeast 474 545 45,000  Level Miami Center
04:46PM 25.1267 -72.0786 150° Southeast 479 551 45,000  Level Miami Center
04:47PM 25.0158 -72.0072 150° Southeast 478 550 45,000  Level Miami Center
04:48PM 24.9039 -71.9086 141° Southeast 484 557 45,000  Level Miami Center
04:49PM 24.7939 -71.8056 140° Southeast 484 557 45,000  Level Miami Center
04:50PM 24.6967 -71.7067 137° Southeast 478 550 45,000  Level Miami Center
04:51PM 24.5972 -71.6128 139° Southeast 473 544 45,000  Level Miami Center
04:52PM 24.4978 -71.5189 139° Southeast 473 544 45,000  Level Miami Center
04:53PM 24.4000 -71.4158 136° Southeast 473 544 45,000  Level Miami Center
04:54PM 24.2986 -71.3247 141° Southeast 473 544 45,000  Level Miami Center
04:55PM 24.2031 -71.2264 137° Southeast 469 540 45,000  Level Miami Center
04:56PM 24.1031 -71.1242 137° Southeast 479 551 45,000  Level Miami Center
04:57PM 24.0017 -71.0403 143° Southeast 474 545 45,000  Level Miami Center
04:58PM 23.9017 -70.9403 138° Southeast 474 545 45,000  Level Miami Center
04:59PM 23.8025 -70.8567 142° Southeast 469 540 45,000  Level Miami Center
05:00PM 23.7000 -70.7528 137° Southeast 474 545 45,000  Level Miami Center
05:01PM 23.6025 -70.6600 139° Southeast 474 545 45,000  Level Miami Center
05:02PM 23.5028 -70.5697 140° Southeast 474 545 45,000  Level Miami Center
05:03PM 23.4028 -70.4775 140° Southeast 474 545 45,000  Level Miami Center
05:04PM 23.3028 -70.3831 139° Southeast 474 545 45,000  Level Miami Center
05:05PM 23.2006 -70.2867 139° Southeast 479 551 45,000  Level Miami Center
05:06PM 23.1047 -70.1992 140° Southeast 468 539 45,000  Level Miami Center
05:07PM 23.0069 -70.1072 139° Southeast 468 539 45,000  Level Miami Center
05:08PM 22.9067 -70.0136 139° Southeast 468 539 45,000  Level Miami Center
05:09PM 22.8108 -69.9242 139° Southeast 468 539 45,000  Level Miami Center
05:10PM 22.7128 -69.8328 139° Southeast 468 539 45,000  Level Miami Center
05:11PM 22.6125 -69.7439 141° Southeast 469 540 45,000  Level Miami Center
05:12PM 22.5100 -69.6439 138° Southeast 474 545 45,000  Level Miami Center
05:13PM 22.4097 -69.5531 140° Southeast 474 545 45,000  Level Miami Center
05:14PM 22.3072 -69.4603 140° Southeast 474 545 45,000  Level Miami Center
05:15PM 22.1933 -69.3906 150° Southeast 479 551 45,000  Level Miami Center
05:16PM 22.0678 -69.3394 159° South 471 542 45,000  Level Miami Center
05:17PM 21.9444 -69.2906 160° South 471 542 45,000  Level Miami Center
05:18PM 21.8317 -69.2458 160° South 471 542 45,000  Level Miami Center
05:19PM 21.7178 -69.1742 150° Southeast 476 548 45,000  Level Miami Center
05:20PM 21.6036 -69.1028 150° Southeast 476 548 45,000  Level Miami Center
05:21PM 21.4853 -69.0294 150° Southeast 482 555 45,000  Level Miami Center
05:22PM 21.3811 -68.9489 144° Southeast 474 545 45,000  Level Miami Center
05:23PM 21.2706 -68.8642 144° Southeast 480 552 45,000  Level Miami Center
05:24PM 21.1581 -68.7842 146° Southeast 485 558 45,000  Level Miami Center
05:25PM 21.0517 -68.7019 144° Southeast 485 558 45,000  Level Miami Center
05:26PM 20.9472 -68.6172 143° Southeast 485 558 45,000  Level Miami Center
05:27PM 20.8408 -68.5331 144° Southeast 485 558 45,000  Level Miami Center
05:28PM 20.7344 -68.4508 144° Southeast 485 558 45,000  Level Miami Center
05:29PM 20.6278 -68.3669 144° Southeast 480 552 45,000  Level Miami Center
05:30PM 20.5192 -68.2853 145° Southeast 474 545 45,000  Level Miami Center
05:31PM 20.4144 -68.1989 142° Southeast 479 551 45,000  Level Miami Center
05:32PM 20.3097 -68.1108 142° Southeast 479 551 45,000  Level Miami Center
05:33PM 20.2322 -67.9922 125° Southeast 479 551 45,000  Level Miami Center
05:34PM 20.1606 -67.8669 121° Southeast 484 557 45,000  Level Miami Center
05:34PM 20.1000 -67.8000 134° Southeast 490 564 45,000  Level San Juan Center
05:35PM 20.0333 -67.6667 118° Southeast 490 564 45,000 -420 Level San Juan Center
05:36PM 19.9667 -67.5333 118° Southeast 500 575 44,200 -1,200 Descending San Juan Center
05:37PM 19.8833 -67.4000 124° Southeast 530 610 42,600 -1,440 Descending San Juan Center
05:38PM 19.8167 -67.2667 118° Southeast 540 621 41,300 -1,500 Descending San Juan Center
05:39PM 19.7167 -67.1333 129° Southeast 560 644 39,600 -1,560 Descending San Juan Center
05:40PM 19.6500 -66.9833 115° Southeast 550 633 38,200 -1,500 Descending San Juan Center
05:41PM 19.5667 -66.8500 124° Southeast 540 621 36,600 -1,560 Descending San Juan Center
05:42PM 19.4833 -66.7167 124° Southeast 540 621 35,100 -1,500 Descending San Juan Center
05:43PM 19.4000 -66.5833 124° Southeast 530 610 33,600 -1,560 Descending San Juan Center
05:44PM 19.3167 -66.4500 124° Southeast 530 610 32,000 -1,560 Descending San Juan Center
05:45PM 19.2333 -66.3167 123° Southeast 530 610 30,500 -1,500 Descending San Juan Center
05:46PM 19.1667 -66.1667 115° Southeast 540 621 29,000 -1,500 Descending San Juan Center
05:47PM 19.0833 -66.0500 127° Southeast 550 633 27,500 -2,220 Descending San Juan Center
05:48PM 18.9833 -65.9500 137° Southeast 500 575 24,600 -3,000 Descending San Juan Center
05:49PM 18.8833 -65.8500 137° Southeast 460 529 21,600 -2,880 Descending San Juan Center
05:50PM 18.7833 -65.7667 142° Southeast 460 529 18,800 -2,520 Descending San Juan Center
05:51PM 18.7000 -65.6833 137° Southeast 400 460 16,600 -2,280 Descending San Juan Center
05:52PM 18.6167 -65.6500 159° South 290 334 14,300 -2,220 Descending San Juan Center
05:53PM 18.5500 -65.6167 155° Southeast 300 345 12,200 -1,920 Descending San Juan Center
05:54PM 18.4667 -65.5833 159° South 280 322 10,500 -1,800 Descending San Juan Center
05:56PM 18.4167 -65.5333 137° Southeast 270 311 8,600 -1,740 Descending San Juan Center
05:57PM 18.3667 -65.4833 136° Southeast 260 299 7,000 -1,620 Descending San Juan Center
05:58PM 18.3000 -65.4333 145° Southeast 260 299 5,400 -1,740 Descending San Juan Center
05:59PM 18.2500 -65.3833 136° Southeast 250 288 3,600 -1,320 Descending San Juan Center
06:00PM 18.2000 -65.3333 136° Southeast 210 242 2,800 -420 Descending San Juan Center
06:01PM 18.2500 -65.3000 32° Northeast 180 207 2,800  Level San Juan Center
06:02PM 18.2833 -65.2500 55° Northeast 190 219 2,800  Level San Juan Center
06:03PM 18.3167 -65.2167 44° Northeast 180 207 2,800  Level San Juan Center
06:04PM 18.3167 -65.1667 90° East 170 196 2,800 -180 Level San Juan Center
06:05PM 18.3167 -65.1167 90° East 160 184 2,500 -480 Descending San Juan Center
06:06PM 18.3167 -65.0833 90° East 120 138 1,900 -600 Descending San Juan Center
06:07PM 18.3167 -65.0500 90° East 100 115 1,300 -600 Descending San Juan Center
06:08PM 18.3333 -65.0167 62° Northeast 150 173 700 -600 Descending San Juan Center